x

Buoy A01 - Mass. Bay/stellwagen (44029) Weather Station

1:04 - Thu 19th Jan 2017 All times are EST. -5 hours from GMT.

  • Wind
    9mph, 13mph gusts
  • Sea Temp 44°f
  • Luft Temp 42°f
  • Sea Pressure 1013.4mb
  • Buoy A01 - Mass. Bay/stellwagen
  • Buoy A01 - Mass. Bay/stellwagen

More Historic Weather Station data

Upgrade to MSW Pro to gain access to the past 30 days of data for over 8000 Wavebouys and Weather Stations around the globe.

Join Pro

Comparision Forecast

View Surf forecast
   
Do 01/19 1:04  -   -  9 13 mph 1013.4mb 44f 42f
12:04 6ft 9s 9 11 mph 1014mb 44f 38f
11:04 6ft 8s 9 13 mph 1014.9mb 44f 37f
10:04 7ft 9s 7 11 mph 1015.5mb 44f 36f
9:04 5.5ft 8s 2 7 mph 1015.4mb 44f 36f
8:04 6ft 8s 4 9 mph 1015.6mb 44f 35f
7:04 6ft 9s 4 7 mph 1015.1mb 44f 35f
6:04 6ft 8s 7 9 mph 1015.4mb 44f 34f
5:04 7ft 8s 9 13 mph 1014.9mb 44f 35f
4:04 6.5ft 8s 11 13 mph 1014.9mb 44f 36f
3:04 6ft 9s 13 16 mph 1015.1mb 44f 37f
2:04 8ft 8s 13
mph
1014.9mb 44f 37f
1:04 7.5ft 9s 16 20 mph 1015.4mb 45f 37f
12:04 9ft 9s 16 20 mph 1015.3mb 45f 37f
Mi 01/18 11:04 9ft 9s 9 11 mph 1015.7mb 45f 41f
10:04 8ft 8s 11 13 mph 1015.5mb 45f 41f
9:04 9.5ft 9s 13 18 mph 1016.2mb 45f 41f
8:04 9ft 8s 13 16 mph 1016.6mb 45f 41f
7:04 9ft 8s 16 18 mph 1016.7mb 44f 40f
6:04 10ft 9s 18 20 mph 1015.9mb 44f 41f
5:04 10ft 9s 16 20 mph 1015.4mb 44f 42f
4:04 9ft 8s 20 22 mph 1014.8mb 44f 41f
3:04 8ft 8s 18 20 mph 1014.8mb 44f 41f
2:04 8.5ft 8s 18 22 mph 1014.2mb 45f 41f
1:04 8.5ft 7s 22 25 mph 1013.9mb 45f 40f
12:04 8ft 7s 22 27 mph 1013.9mb 45f 40f
11:04 6.5ft 7s 22 25 mph 1014.6mb 45f 41f
10:04 5.5ft 6s 25 27 mph 1015.3mb 45f 41f
9:04 5ft 6s 22 27 mph 1015.6mb 45f 41f
8:04 5ft 6s 18 22 mph 1015.4mb 45f 40f
7:04 6ft 6s 20 22 mph 1015.4mb 44f 40f
6:04 5ft 6s 20 25 mph 1015.6mb 44f 39f
5:04 5ft 6s 22 25 mph 1015.4mb 44f 38f
4:04 5ft 6s 22 27 mph 1015.6mb 44f 38f
3:04 5ft 6s 22 27 mph 1016.4mb 44f 39f
2:04 4.5ft 5s 22 27 mph 1017.1mb 44f 39f
1:04 5ft 5s 20 25 mph 1018.2mb 44f 38f
12:04 4ft 5s 20 25 mph 1018.8mb 44f 38f
Di 01/17 11:04 4ft 5s 22 27 mph 1019.2mb 44f 39f
10:04 4.5ft 5s 22 27 mph 1020.3mb 44f 39f
9:04 4ft 5s 22 27 mph 1020.8mb 44f 40f
8:04 4.5ft 4s 18 22 mph 1021.4mb 44f 41f
7:04 3.5ft 4s 18 20 mph 1021.8mb 44f 42f
6:04 3ft 4s 18 22 mph 1021.6mb 44f 42f
5:04 2.5ft 5s 16 20 mph 1021.6mb 44f 42f
4:04 3ft 5s 13 16 mph 1021.8mb 44f 42f
3:04  -   -  11 18 mph 1021.7mb 44f 43f
2:04 3ft 4s 9 11 mph 1022mb 44f 42f
1:04 2ft 4s 13 16 mph 1022.2mb 44f 41f
12:04 2ft 3s 13 18 mph 1022.9mb 44f 42f
11:04 1ft 2s 16 18 mph 1023.6mb 44f 43f
10:04 1ft 3s 11 13 mph 1023.9mb 44f 42f
9:04 1.3ft 2s 16
mph
1023.9mb 44f 39f
8:04 1ft 3s 11 16 mph 1023.2mb 44f 38f
7:04 1.3ft 3s 13 16 mph 1022.7mb 44f 38f
6:04 1.3ft 3s 11 13 mph 1021.9mb 44f 38f
5:04 1.6ft 3s 11 16 mph 1021.6mb 44f 38f
4:04 3.5ft 4s 18 22 mph 1021.3mb 44f 38f
3:04 2.5ft 4s 20 25 mph 1021mb 44f 38f
2:04 2ft 4s 18 20 mph 1021.1mb 44f 39f
1:04 2ft 4s 18 22 mph 1021.6mb 44f 39f
12:04 3.5ft 5s 22 27 mph 1021.4mb 44f 40f
Mo 01/16 11:04 3ft 4s 20 25 mph 1022mb 44f 40f
10:04 3ft 4s 20 25 mph 1022.6mb 44f 40f
9:04 4ft 4s 22 27 mph 1022.7mb 44f 41f
8:04 3.5ft 4s 25 29 mph 1023.3mb 44f 41f
7:04 3.5ft 4s 22 25 mph 1023.6mb 44f 42f
6:04 4ft 4s 22 27 mph 1023.8mb 44f 42f
5:04 3.5ft 4s 20 22 mph 1023.6mb 44f 42f
4:04 4ft 4s 20 22 mph 1024.1mb 44f 42f
3:04 4.5ft 4s 20 25 mph 1024mb 44f 41f
2:04 3.5ft 4s 20 29 mph 1024.5mb 44f 39f
1:04 2.5ft 4s 22 25 mph 1025.4mb 44f 38f
12:04 2ft 3s 18 22 mph 1026.5mb 44f 37f
11:04 2.5ft 3s 18 22 mph 1028.2mb 44f 35f
10:04 1.6ft 5s 16 20 mph 1029.7mb 44f 35f
9:04 1ft 5s 11 18 mph 1029.6mb 44f 34f
8:04 1ft 5s 7 11 mph 1030mb 44f 32f
7:04 1ft 5s 7 9 mph 1029.9mb 44f 31f
6:04 0.7ft  -  4 7 mph 1029.9mb 44f 30f
5:04 1ft 5s 7 9 mph 1029.8mb 44f 31f
4:04 1ft 5s 7 9 mph 1029.7mb 44f 31f
3:04 1ft 11s 9 11 mph 1029.7mb 44f 31f
2:04  -   -  13 16 mph 1030mb 44f 32f
1:04 1.3ft 4s 11 13 mph 1029mb 44f 33f
12:04 2ft 4s 11 13 mph 1028.7mb 44f 33f
So 01/15 11:04 2.5ft 4s 11 13 mph 1028.9mb 44f 34f
10:04 2.5ft 5s 13 16 mph 1028.8mb 44f 34f
9:04 1.6ft 4s 13 16 mph 1028.7mb 44f 34f
8:04 1.3ft 4s 16 18 mph 1028.2mb 44f 34f